| time (UTC) | temp C | wind direction | speed KPH | gust KPH | rain 1hr cm | rain 24hr cm | rain mn cm | humidity % | barometer mb |
| 20260906224543 | 15 | 26 | 6.4 | 14.5 | 0.00 | 2.57 | 2.03 | 85 | 1017.2 |
| 20260906223044 | 14 | 19 | 6.4 | 12.9 | 0.00 | 2.57 | 2.03 | 85 | 1017.3 |
| 20260906221541 | 14 | 301 | 4.8 | 12.9 | 0.00 | 2.57 | 2.03 | 84 | 1017.2 |
| 20260906220042 | 14 | 11 | 6.4 | 14.5 | 0.00 | 2.57 | 2.03 | 83 | 1017.3 |
| 20260906214538 | 15 | 315 | 4.8 | 14.5 | 0.00 | 2.57 | 2.03 | 82 | 1017.2 |
| 20260906213041 | 15 | 238 | 4.8 | 14.5 | 0.00 | 2.57 | 2.03 | 79 | 1017.1 |
| 20260906211537 | 16 | 242 | 3.2 | 11.3 | 0.00 | 2.57 | 2.03 | 79 | 1017.0 |
| 20260906210046 | 16 | 32 | 3.2 | 11.3 | 0.00 | 2.57 | 2.03 | 79 | 1016.9 |
| 20260906204543 | 15 | 34 | 4.8 | 14.5 | 0.00 | 2.57 | 2.03 | 82 | 1017.0 |
| 20260906203040 | 13 | 68 | 6.4 | 16.1 | 0.00 | 2.57 | 2.03 | 84 | 1017.0 |
| 20260906201540 | 13 | 34 | 8.0 | 19.3 | 0.00 | 2.57 | 2.03 | 83 | 1017.2 |
| 20260906200041 | 14 | 57 | 8.0 | 17.7 | 0.00 | 2.57 | 2.03 | 81 | 1017.3 |
| 20260906194539 | 15 | 17 | 11.3 | 20.9 | 0.00 | 2.57 | 2.03 | 78 | 1017.1 |
| 20260906193041 | 16 | 346 | 9.7 | 20.9 | 0.00 | 2.57 | 2.03 | 77 | 1017.1 |
| 20260906191538 | 16 | 313 | 8.0 | 22.5 | 0.00 | 2.57 | 2.03 | 77 | 1017.2 |
| 20260906190043 | 16 | 344 | 9.7 | 24.1 | 0.00 | 2.57 | 2.03 | 76 | 1016.9 |
| 20260906184542 | 16 | 251 | 6.4 | 22.5 | 0.00 | 2.57 | 2.03 | 77 | 1016.7 |
| 20260906183047 | 15 | 317 | 8.0 | 20.9 | 0.00 | 2.57 | 2.03 | 81 | 1016.7 |
| 20260906181544 | 13 | 277 | 12.9 | 25.7 | 0.00 | 2.57 | 2.03 | 81 | 1017.1 |
| 20260906180040 | 12 | 9 | 11.3 | 25.7 | 0.05 | 2.57 | 2.03 | 85 | 1017.6 |
| 20260906174543 | 12 | 36 | 12.9 | 22.5 | 0.05 | 2.57 | 2.03 | 87 | 1018.0 |
| 20260906173038 | 11 | 34 | 11.3 | 22.5 | 0.05 | 2.57 | 2.03 | 92 | 1018.1 |
| 20260906171540 | 11 | 341 | 11.3 | 24.1 | 0.05 | 2.57 | 2.03 | 92 | 1019.0 |
| 20260906170035 | 11 | 304 | 8.0 | 17.7 | 0.00 | 2.51 | 1.98 | 91 | 1019.5 |
| 20260906164540 | 11 | 351 | 8.0 | 17.7 | 0.00 | 2.51 | 1.98 | 90 | 1019.1 |
| 20260906163038 | 11 | 299 | 4.8 | 16.1 | 0.00 | 2.51 | 1.98 | 91 | 1018.9 |
| 20260906161539 | 11 | 51 | 8.0 | 19.3 | 0.00 | 2.51 | 1.98 | 93 | 1018.7 |
| 20260906160038 | 11 | 309 | 8.0 | 19.3 | 0.03 | 2.51 | 1.98 | 92 | 1019.0 |
| 20260906154536 | 10 | 340 | 9.7 | 25.7 | 1.19 | 2.51 | 1.98 | 93 | 1019.1 |
| 20260906153039 | 10 | 344 | 9.7 | 20.9 | 1.68 | 2.51 | 1.98 | 93 | 1019.4 |
| 20260906151547 | 10 | 311 | 8.0 | 19.3 | 1.88 | 2.51 | 1.98 | 93 | 1019.6 |
| 20260906150037 | 10 | 326 | 8.0 | 16.1 | 1.85 | 2.49 | 1.96 | 92 | 1020.2 |
| 20260906144541 | 11 | 199 | 1.6 | 25.7 | 0.66 | 1.32 | 0.76 | 91 | 1020.1 |
| 20260906143036 | 11 | 286 | 4.8 | 19.3 | 0.18 | 0.84 | 0.28 | 90 | 1020.0 |
| 20260906141540 | 12 | 200 | 4.8 | 12.9 | 0.00 | 0.66 | 0.10 | 85 | 1019.5 |
| 20260906140037 | 15 | 14 | 8.0 | 19.3 | 0.00 | 0.66 | 0.10 | 79 | 1018.8 |
| 20260906134536 | 14 | 306 | 8.0 | 20.9 | 0.00 | 0.81 | 0.10 | 80 | 1018.6 |
| 20260906133046 | 13 | 146 | 4.8 | 9.7 | 0.00 | 0.81 | 0.10 | 83 | 1018.7 |
| 20260906131541 | 12 | 222 | 6.4 | 12.9 | 0.00 | 0.81 | 0.10 | 85 | 1018.7 |
| 20260906130038 | 12 | 11 | 8.0 | 17.7 | 0.00 | 0.81 | 0.10 | 86 | 1018.8 |
| 20260906124540 | 13 | 215 | 4.8 | 9.7 | 0.00 | 0.84 | 0.10 | 81 | 1018.9 |
| 20260906123041 | 13 | 278 | 3.2 | 16.1 | 0.00 | 0.84 | 0.10 | 79 | 1019.3 |
| 20260906121536 | 13 | 218 | 11.3 | 29.0 | 0.00 | 0.84 | 0.10 | 75 | 1019.2 |
| 20260906120039 | 15 | 13 | 11.3 | 25.7 | 0.00 | 0.84 | 0.10 | 66 | 1018.6 |
| 20260906114542 | 12 | 86 | 1.6 | 8.0 | 0.00 | 0.84 | 0.10 | 78 | 1019.3 |
| 20260906113047 | 12 | 45 | 3.2 | 6.4 | 0.00 | 0.84 | 0.10 | 81 | 1019.3 |
| 20260906111539 | 12 | 271 | 3.2 | 8.0 | 0.00 | 0.84 | 0.10 | 80 | 1018.7 |
| 20260906110035 | 12 | 40 | 1.6 | 12.9 | 0.00 | 0.84 | 0.10 | 80 | 1018.7 |
| 20260906104541 | 11 | 13 | 8.0 | 19.3 | 0.00 | 0.84 | 0.10 | 85 | 1018.6 |
| 20260906103050 | 11 | 330 | 12.9 | 20.9 | 0.00 | 0.84 | 0.10 | 87 | 1018.7 |
| 20260906101547 | 11 | 312 | 11.3 | 27.4 | 0.00 | 0.84 | 0.10 | 88 | 1019.0 |
| 20260906100036 | 11 | 22 | 9.7 | 19.3 | 0.03 | 0.84 | 0.10 | 89 | 1019.2 |
| 20260906094542 | 11 | 47 | 8.0 | 25.7 | 0.03 | 0.84 | 0.10 | 93 | 1019.1 |
| 20260906093049 | 11 | 295 | 8.0 | 16.1 | 0.03 | 0.84 | 0.10 | 95 | 1019.4 |
| 20260906091541 | 10 | 15 | 14.5 | 22.5 | 0.03 | 0.84 | 0.10 | 95 | 1020.4 |
| 20260906090039 | 10 | 11 | 17.7 | 27.4 | 0.00 | 0.81 | 0.08 | 95 | 1020.8 |
| 20260906084541 | 10 | 314 | 8.0 | 22.5 | 0.03 | 0.81 | 0.08 | 94 | 1021.1 |
| 20260906083041 | 10 | 14 | 8.0 | 14.5 | 0.03 | 0.81 | 0.08 | 94 | 1020.3 |
| 20260906081539 | 10 | 322 | 9.7 | 19.3 | 0.03 | 0.81 | 0.08 | 94 | 1020.6 |
| 20260906080039 | 10 | 293 | 3.2 | 22.5 | 0.03 | 0.81 | 0.08 | 93 | 1021.0 |
| 20260906074541 | 11 | 293 | 11.3 | 22.5 | 0.00 | 0.79 | 0.05 | 94 | 1020.6 |
| 20260906073042 | 10 | 30 | 11.3 | 22.5 | 0.00 | 0.79 | 0.05 | 93 | 1020.6 |
| 20260906071540 | 11 | 36 | 12.9 | 20.9 | 0.00 | 0.79 | 0.05 | 93 | 1021.1 |
| 20260906070035 | 11 | 306 | 6.4 | 16.1 | 0.05 | 0.79 | 0.05 | 93 | 1021.3 |
| 20260906064542 | 11 | 23 | 8.0 | 20.9 | 0.05 | 0.79 | 0.05 | 93 | 1021.3 |
| 20260906063041 | 11 | 313 | 12.9 | 20.9 | 0.05 | 0.79 | 0.05 | 92 | 1022.2 |
| 20260906061541 | 11 | 24 | 9.7 | 17.7 | 0.05 | 0.79 | 0.05 | 91 | 1022.1 |
| 20260906060040 | 11 | 263 | 11.3 | 19.3 | 0.15 | 0.74 | 0.00 | 90 | 1021.9 |
| 20260906054540 | 11 | 37 | 9.7 | 20.9 | 0.18 | 0.74 | 0.74 | 90 | 1021.5 |
| 20260906053041 | 11 | 43 | 6.4 | 19.3 | 0.18 | 0.74 | 0.74 | 91 | 1021.6 |
| 20260906051541 | 11 | 35 | 14.5 | 29.0 | 0.18 | 0.74 | 0.74 | 91 | 1021.4 |
| 20260906050045 | 11 | 324 | 8.0 | 22.5 | 0.03 | 0.58 | 0.58 | 89 | 1022.8 |
| 20260906044542 | 11 | 315 | 14.5 | 24.1 | 0.15 | 0.56 | 0.56 | 88 | 1021.1 |
| 20260906043039 | 11 | 35 | 9.7 | 20.9 | 0.33 | 0.56 | 0.56 | 89 | 1020.3 |
| 20260906041537 | 11 | 31 | 8.0 | 20.9 | 0.36 | 0.56 | 0.56 | 89 | 1020.9 |
| 20260906040037 | 11 | 317 | 14.5 | 25.7 | 0.36 | 0.56 | 0.56 | 89 | 1020.2 |
| 20260906034542 | 11 | 342 | 6.4 | 14.5 | 0.18 | 0.38 | 0.38 | 87 | 1022.7 |
| 20260906033038 | 12 | 275 | 9.7 | 24.1 | 0.03 | 0.23 | 0.23 | 82 | 1021.6 |
| 20260906031540 | 13 | 11 | 12.9 | 24.1 | 0.00 | 0.20 | 0.20 | 77 | 1020.7 |
| 20260906030045 | 13 | 342 | 12.9 | 25.7 | 0.00 | 0.20 | 0.20 | 76 | 1020.2 |
| 20260906024541 | 13 | 17 | 12.9 | 25.7 | 0.00 | 0.20 | 0.20 | 76 | 1019.6 |
| 20260906023048 | 13 | 22 | 11.3 | 19.3 | 0.00 | 0.20 | 0.20 | 75 | 1019.7 |
| 20260906021545 | 13 | 329 | 12.9 | 25.7 | 0.00 | 0.20 | 0.20 | 74 | 1019.8 |
| 20260906020039 | 13 | 318 | 11.3 | 27.4 | 0.00 | 0.20 | 0.20 | 74 | 1019.7 |
| 20260906014547 | 13 | 10 | 11.3 | 20.9 | 0.00 | 0.20 | 0.20 | 72 | 1019.7 |
| 20260906013046 | 14 | 5 | 9.7 | 19.3 | 0.00 | 0.20 | 0.20 | 71 | 1019.6 |
| 20260906011537 | 15 | 24 | 11.3 | 22.5 | 0.00 | 0.20 | 0.20 | 71 | 1019.6 |
| 20260906010043 | 15 | 345 | 11.3 | 24.1 | 0.00 | 0.20 | 0.20 | 70 | 1019.6 |
| 20260906004540 | 15 | 20 | 9.7 | 19.3 | 0.00 | 0.20 | 0.20 | 69 | 1019.8 |
| 20260906003042 | 15 | 329 | 11.3 | 20.9 | 0.00 | 0.20 | 0.20 | 67 | 1019.8 |
| 20260906001540 | 16 | 343 | 12.9 | 25.7 | 0.00 | 0.20 | 0.20 | 67 | 1019.9 |
| 20260906000042 | 16 | 34 | 9.7 | 19.3 | 0.00 | 0.20 | 0.20 | 67 | 1020.0 |
| 20260905234541 | 16 | 351 | 11.3 | 22.5 | 0.00 | 0.20 | 0.20 | 65 | 1020.2 |
| 20260905233041 | 17 | 11 | 9.7 | 17.7 | 0.00 | 0.20 | 0.20 | 65 | 1020.2 |
| 20260905231541 | 17 | 27 | 8.0 | 19.3 | 0.00 | 0.20 | 0.20 | 62 | 1020.0 |
| 20260905230042 | 17 | 28 | 8.0 | 20.9 | 0.00 | 0.20 | 0.20 | 62 | 1020.0 |